Terminal Aerodrome Forecast
Issued by NWS Boston, MA

Home | Current Version | Previous Version | Text Only | Print | Product List | Glossary On
Versions: 1 2 3 4 5 6 7 8 9 10 11 12 13 14 15 16 17 18 19
000
FTUS41 KBOX 251736
TAFORH
TAF
KORH 251736Z 2518/2618 17010G20KT P6SM BKN025
     FM260000 18010G18KT 1SM BR OVC015
     FM260200 25011G21KT 1SM -SHRA BR OVC015
     FM260500 29015G28KT P6SM BKN060
     FM260600 29016G31KT P6SM SCT080=

USA.gov is the U.S. government's official web portal to all federal, state and local government web resources and services.